Middle Creek, Pennsylvania
Current Conditions -  °F | °C
As of 7:35 AM on Monday 24 Nov 2014 (Local Time) from KSEG Reporting Station
Overcast Overcast  
Wind Chill: 17°   Ceiling: 7500
Heat Index: 17°   Visibility: 10mi
Dew Point: 13°   Wind: 13mph
Humidity: 80%   Direction: 190°S
Pressure: 29.58"   Gusts: 23mph
Location:  40.817°N, 76.9715°W
Report Text: KSEG 241235Z AUTO 19011G20KT 10SM SCT022 SCT027 OVC075 17/13 A2958 RMK AO2 T01670133
Loading
Personal Weather Stations






























Interactive Weather Map New forecast layout! Learn more

10-Day Weather Forecast

Advertisements
Track Severe Weather on mobile